header
chart

Reported and forecast weather at local airports

Important: not to be used for flight planning purposes.


EGBB METAR fetched   Sunday 20th May @ 14:48:46
EGBB 201320Z 12006KT 080V170 9999 FEW048 21/09 Q1021

EGCC METAR fetched   Sunday 20th May @ 14:48:44
EGCC 201320Z AUTO 22005G15KT 150V260 9999 NCD 22/09 Q1020 NOSIG

EGGP METAR fetched   Sunday 20th May @ 14:48:44
EGGP 201320Z 17010KT 9999 FEW048 22/08 Q1020

EGNH METAR fetched   Sunday 20th May @ 14:48:45
EGNH 201320Z 29009KT CAVOK 19/12 Q1020

EGNM METAR fetched   Sunday 20th May @ 14:48:46
EGNM 201320Z 20005KT 110V280 9999 FEW045 22/10 Q1020

EGOV METAR fetched   Sunday 20th May @ 14:48:47
EGOV 201250Z AUTO 19013KT 9999 FEW100/// 14/09 Q1020


EGBB TAF fetched   Sunday 20th May @ 14:48:46
TAF EGBB 201055Z 2012/2112 16005KT 9999 FEW045 PROB30 2103/2107 6000

EGCC TAF fetched   Sunday 20th May @ 14:48:44
TAF EGCC 201059Z 2012/2118 19006KT 9999 FEW045 PROB30 2102/2108 6000 PROB30 TEMPO 2112/2118 8000 SHRA

EGGP TAF fetched   Sunday 20th May @ 14:48:45
TAF EGGP 201059Z 2012/2112 18010KT CAVOK BECMG 2015/2018 35010KT BECMG 2021/2024 13005KT PROB30 2101/2109 6000

EGNM TAF fetched   Sunday 20th May @ 14:48:46
TAF EGNM 201100Z 2012/2112 15005KT 9999 FEW040 BECMG 2100/2103 7000 PROB30 2103/2108 0600 BCFG BKN001 BECMG 2107/2110 9999

EGOV TAF fetched   Sunday 20th May @ 14:48:47
TAF TAF EGOV 190525Z 1906/1918 04008KT CAVOK PROB30 TEMPO 1906/1912 6000 SHRA TEMPO 1912/1915 4000 +SHRA SCT020 BKN030CB PROB30 TEMPO 1913/1915 VRBG20G30KT 2500 TSGR BKN012

Every effort is made to ensure that this information is free from errors but as it is provided by a third party the accuracy of the reports cannot be guaranteed.